sensor_id;sensor_type;location;lat;lon;timestamp;pressure;altitude;pressure_sealevel;temperature;humidity
41383;BME280;27971;53.902;9.118;2022-10-22T00:00:54;100961.0;;;17.8;29.66
41383;BME280;27971;53.902;9.118;2022-10-22T00:02:56;100962.0;;;21.26;29.89
41383;BME280;27971;53.902;9.118;2022-10-22T00:04:58;100964.0;;;21.17;30.99
41383;BME280;27971;53.902;9.118;2022-10-22T00:07:01;100966.0;;;20.98;31.73
41383;BME280;27971;53.902;9.118;2022-10-22T00:09:03;100969.0;;;20.91;32.19
41383;BME280;27971;53.902;9.118;2022-10-22T00:11:08;100970.0;;;20.5;32.82
41383;BME280;27971;53.902;9.118;2022-10-22T00:13:09;100970.0;;;20.17;33.34
41383;BME280;27971;53.902;9.118;2022-10-22T00:15:12;100972.0;;;20.05;33.65
41383;BME280;27971;53.902;9.118;2022-10-22T00:17:15;100972.0;;;20.3;33.56
41383;BME280;27971;53.902;9.118;2022-10-22T00:19:18;100973.0;;;20.44;33.41
41383;BME280;27971;53.902;9.118;2022-10-22T00:21:21;100976.0;;;20.59;33.31
41383;BME280;27971;53.902;9.118;2022-10-22T00:23:23;100977.0;;;20.77;33.16
41383;BME280;27971;53.902;9.118;2022-10-22T00:25:25;100978.0;;;20.7;33.2
41383;BME280;27971;53.902;9.118;2022-10-22T00:27:27;100979.0;;;20.82;33.17
41383;BME280;27971;53.902;9.118;2022-10-22T00:29:30;100978.0;;;20.8;33.22
41383;BME280;27971;53.902;9.118;2022-10-22T00:31:32;100978.0;;;20.84;33.19
41383;BME280;27971;53.902;9.118;2022-10-22T00:33:35;100980.0;;;20.89;33.15
41383;BME280;27971;53.902;9.118;2022-10-22T00:35:37;100981.0;;;20.92;33.14
41383;BME280;27971;53.902;9.118;2022-10-22T00:37:39;100982.0;;;20.89;33.18
41383;BME280;27971;53.902;9.118;2022-10-22T00:39:43;100983.0;;;20.84;33.16
41383;BME280;27971;53.902;9.118;2022-10-22T00:41:47;100983.0;;;20.7;33.29
41383;BME280;27971;53.902;9.118;2022-10-22T00:43:57;100982.0;;;20.72;33.37
41383;BME280;27971;53.902;9.118;2022-10-22T00:45:51;100981.0;;;20.72;33.48
41383;BME280;27971;53.902;9.118;2022-10-22T00:47:57;100981.0;;;20.53;33.57
41383;BME280;27971;53.902;9.118;2022-10-22T00:49:58;100982.0;;;20.49;33.7
41383;BME280;27971;53.902;9.118;2022-10-22T00:51:59;100984.0;;;20.45;33.78
41383;BME280;27971;53.902;9.118;2022-10-22T00:54:04;100988.0;;;20.32;33.81
41383;BME280;27971;53.902;9.118;2022-10-22T00:56:05;100989.0;;;20.37;33.82
41383;BME280;27971;53.902;9.118;2022-10-22T00:58:08;100987.0;;;20.37;33.78
41383;BME280;27971;53.902;9.118;2022-10-22T01:00:12;100988.0;;;20.81;33.35
41383;BME280;27971;53.902;9.118;2022-10-22T01:02:13;100991.0;;;20.99;33.23
41383;BME280;27971;53.902;9.118;2022-10-22T01:04:16;100996.0;;;20.97;33.27
41383;BME280;27971;53.902;9.118;2022-10-22T01:06:21;100998.0;;;20.71;33.54
41383;BME280;27971;53.902;9.118;2022-10-22T01:08:25;101001.0;;;20.41;33.78
41383;BME280;27971;53.902;9.118;2022-10-22T01:10:36;101000.0;;;20.69;33.59
41383;BME280;27971;53.902;9.118;2022-10-22T01:12:35;100998.0;;;20.71;33.62
41383;BME280;27971;53.902;9.118;2022-10-22T01:14:35;100995.0;;;21.04;33.28
41383;BME280;27971;53.902;9.118;2022-10-22T01:16:36;100993.0;;;20.94;33.28
41383;BME280;27971;53.902;9.118;2022-10-22T01:18:39;100991.0;;;20.7;33.49
41383;BME280;27971;53.902;9.118;2022-10-22T01:20:53;100992.0;;;20.62;33.61
41383;BME280;27971;53.902;9.118;2022-10-22T01:22:44;100991.0;;;20.63;33.65
41383;BME280;27971;53.902;9.118;2022-10-22T01:24:55;100990.0;;;20.63;33.65
41383;BME280;27971;53.902;9.118;2022-10-22T01:26:59;100989.0;;;20.79;33.48
41383;BME280;27971;53.902;9.118;2022-10-22T01:28:56;100991.0;;;20.68;33.62
41383;BME280;27971;53.902;9.118;2022-10-22T01:30:54;100992.0;;;20.89;33.44
41383;BME280;27971;53.902;9.118;2022-10-22T01:32:58;100994.0;;;20.24;34.01
41383;BME280;27971;53.902;9.118;2022-10-22T01:35:01;100995.0;;;20.79;33.49
41383;BME280;27971;53.902;9.118;2022-10-22T01:37:01;100998.0;;;21.0;33.26
41383;BME280;27971;53.902;9.118;2022-10-22T01:39:04;100997.0;;;21.12;33.12
41383;BME280;27971;53.902;9.118;2022-10-22T01:41:07;100992.0;;;21.11;33.11
41383;BME280;27971;53.902;9.118;2022-10-22T01:43:10;100988.0;;;21.07;33.16
41383;BME280;27971;53.902;9.118;2022-10-22T01:45:13;100986.0;;;21.28;32.92
41383;BME280;27971;53.902;9.118;2022-10-22T01:47:20;100986.0;;;21.13;33.03
41383;BME280;27971;53.902;9.118;2022-10-22T01:49:23;100984.0;;;21.3;32.94
41383;BME280;27971;53.902;9.118;2022-10-22T01:51:29;100981.0;;;21.12;33.11
41383;BME280;27971;53.902;9.118;2022-10-22T01:53:28;100980.0;;;20.97;33.24
41383;BME280;27971;53.902;9.118;2022-10-22T01:55:29;100979.0;;;21.18;32.98
41383;BME280;27971;53.902;9.118;2022-10-22T01:57:34;100976.0;;;21.46;32.57
41383;BME280;27971;53.902;9.118;2022-10-22T01:59:37;100974.0;;;21.45;32.52
41383;BME280;27971;53.902;9.118;2022-10-22T02:01:40;100974.0;;;21.3;32.63
41383;BME280;27971;53.902;9.118;2022-10-22T02:03:40;100978.0;;;21.16;32.72
41383;BME280;27971;53.902;9.118;2022-10-22T02:05:43;100981.0;;;20.94;32.95
41383;BME280;27971;53.902;9.118;2022-10-22T02:07:47;100981.0;;;20.66;33.14
41383;BME280;27971;53.902;9.118;2022-10-22T02:09:46;100980.0;;;20.56;33.38
41383;BME280;27971;53.902;9.118;2022-10-22T02:11:50;100980.0;;;20.51;33.47
41383;BME280;27971;53.902;9.118;2022-10-22T02:13:54;100981.0;;;20.37;33.61
41383;BME280;27971;53.902;9.118;2022-10-22T02:15:54;100982.0;;;20.3;33.71
41383;BME280;27971;53.902;9.118;2022-10-22T02:17:58;100983.0;;;20.28;33.82
41383;BME280;27971;53.902;9.118;2022-10-22T02:20:02;100983.0;;;20.11;33.91
41383;BME280;27971;53.902;9.118;2022-10-22T02:22:03;100979.0;;;20.38;33.73
41383;BME280;27971;53.902;9.118;2022-10-22T02:24:06;100977.0;;;20.35;33.75
41383;BME280;27971;53.902;9.118;2022-10-22T02:26:15;100975.0;;;20.2;33.82
41383;BME280;27971;53.902;9.118;2022-10-22T02:28:14;100972.0;;;20.26;33.85
41383;BME280;27971;53.902;9.118;2022-10-22T02:30:16;100972.0;;;20.24;33.89
41383;BME280;27971;53.902;9.118;2022-10-22T02:32:20;100969.0;;;20.39;33.72
41383;BME280;27971;53.902;9.118;2022-10-22T02:34:23;100969.0;;;20.51;33.6
41383;BME280;27971;53.902;9.118;2022-10-22T02:36:23;100969.0;;;20.4;33.73
41383;BME280;27971;53.902;9.118;2022-10-22T02:38:26;100970.0;;;20.26;33.86
41383;BME280;27971;53.902;9.118;2022-10-22T02:40:29;100971.0;;;20.13;33.96
41383;BME280;27971;53.902;9.118;2022-10-22T02:42:31;100970.0;;;20.15;33.98
41383;BME280;27971;53.902;9.118;2022-10-22T02:44:33;100969.0;;;20.05;34.05
41383;BME280;27971;53.902;9.118;2022-10-22T02:46:36;100967.0;;;20.05;34.02
41383;BME280;27971;53.902;9.118;2022-10-22T02:48:38;100967.0;;;20.12;33.98
41383;BME280;27971;53.902;9.118;2022-10-22T02:50:42;100968.0;;;20.21;33.86
41383;BME280;27971;53.902;9.118;2022-10-22T02:52:44;100970.0;;;20.28;33.8
41383;BME280;27971;53.902;9.118;2022-10-22T02:54:47;100971.0;;;20.21;33.84
41383;BME280;27971;53.902;9.118;2022-10-22T02:56:49;100971.0;;;20.16;33.91
41383;BME280;27971;53.902;9.118;2022-10-22T02:58:51;100972.0;;;20.09;33.99
41383;BME280;27971;53.902;9.118;2022-10-22T03:00:54;100974.0;;;20.14;33.9
41383;BME280;27971;53.902;9.118;2022-10-22T03:02:57;100978.0;;;20.11;33.91
41383;BME280;27971;53.902;9.118;2022-10-22T03:04:59;100983.0;;;20.14;33.94
41383;BME280;27971;53.902;9.118;2022-10-22T03:07:02;100987.0;;;20.21;33.93
41383;BME280;27971;53.902;9.118;2022-10-22T03:09:04;100989.0;;;20.08;34.02
41383;BME280;27971;53.902;9.118;2022-10-22T03:11:06;100988.0;;;20.11;33.97
41383;BME280;27971;53.902;9.118;2022-10-22T03:13:09;100987.0;;;20.25;33.81
41383;BME280;27971;53.902;9.118;2022-10-22T03:15:11;100988.0;;;20.03;34.03
41383;BME280;27971;53.902;9.118;2022-10-22T03:17:13;100990.0;;;19.93;34.1
41383;BME280;27971;53.902;9.118;2022-10-22T03:19:16;100992.0;;;20.11;33.99
41383;BME280;27971;53.902;9.118;2022-10-22T03:21:25;100993.0;;;20.27;33.87
41383;BME280;27971;53.902;9.118;2022-10-22T03:23:21;100992.0;;;20.3;33.83
41383;BME280;27971;53.902;9.118;2022-10-22T03:25:24;100993.0;;;20.1;33.96
41383;BME280;27971;53.902;9.118;2022-10-22T03:27:27;100996.0;;;20.05;34.03
41383;BME280;27971;53.902;9.118;2022-10-22T03:29:31;100999.0;;;20.04;34.06
41383;BME280;27971;53.902;9.118;2022-10-22T03:31:31;101003.0;;;20.05;34.08
41383;BME280;27971;53.902;9.118;2022-10-22T03:33:33;101005.0;;;20.11;34.04
41383;BME280;27971;53.902;9.118;2022-10-22T03:35:41;101005.0;;;20.04;34.04
41383;BME280;27971;53.902;9.118;2022-10-22T03:37:38;101008.0;;;20.13;34.0
41383;BME280;27971;53.902;9.118;2022-10-22T03:39:41;101010.0;;;20.19;33.94
41383;BME280;27971;53.902;9.118;2022-10-22T03:41:44;101013.0;;;20.13;33.93
41383;BME280;27971;53.902;9.118;2022-10-22T03:43:47;101016.0;;;20.06;34.0
41383;BME280;27971;53.902;9.118;2022-10-22T03:45:49;101020.0;;;20.01;34.03
41383;BME280;27971;53.902;9.118;2022-10-22T03:47:51;101022.0;;;19.93;34.1
41383;BME280;27971;53.902;9.118;2022-10-22T03:49:54;101022.0;;;19.95;33.99
41383;BME280;27971;53.902;9.118;2022-10-22T03:51:57;101023.0;;;19.98;34.0
41383;BME280;27971;53.902;9.118;2022-10-22T03:53:59;101020.0;;;19.93;34.08
41383;BME280;27971;53.902;9.118;2022-10-22T03:56:01;101018.0;;;19.92;34.09
41383;BME280;27971;53.902;9.118;2022-10-22T03:58:04;101019.0;;;19.82;34.11
41383;BME280;27971;53.902;9.118;2022-10-22T04:00:07;101024.0;;;20.14;33.81
41383;BME280;27971;53.902;9.118;2022-10-22T04:02:09;101027.0;;;20.22;33.71
41383;BME280;27971;53.902;9.118;2022-10-22T04:04:12;101027.0;;;20.16;33.76
41383;BME280;27971;53.902;9.118;2022-10-22T04:06:14;101029.0;;;20.29;33.66
41383;BME280;27971;53.902;9.118;2022-10-22T04:08:17;101033.0;;;20.14;33.82
41383;BME280;27971;53.902;9.118;2022-10-22T04:10:20;101034.0;;;20.18;33.72
41383;BME280;27971;53.902;9.118;2022-10-22T04:12:22;101033.0;;;20.13;33.81
41383;BME280;27971;53.902;9.118;2022-10-22T04:14:25;101037.0;;;20.44;33.53
41383;BME280;27971;53.902;9.118;2022-10-22T04:16:27;101039.0;;;20.28;33.68
41383;BME280;27971;53.902;9.118;2022-10-22T04:18:30;101043.0;;;19.83;33.81
41383;BME280;27971;53.902;9.118;2022-10-22T04:20:34;101046.0;;;20.3;33.57
41383;BME280;27971;53.902;9.118;2022-10-22T04:22:36;101047.0;;;20.47;33.42
41383;BME280;27971;53.902;9.118;2022-10-22T04:24:38;101048.0;;;20.34;33.51
41383;BME280;27971;53.902;9.118;2022-10-22T04:26:41;101049.0;;;20.09;33.65
41383;BME280;27971;53.902;9.118;2022-10-22T04:28:44;101048.0;;;20.13;33.77
41383;BME280;27971;53.902;9.118;2022-10-22T04:30:47;101045.0;;;20.15;33.75
41383;BME280;27971;53.902;9.118;2022-10-22T04:32:49;101042.0;;;20.01;33.9
41383;BME280;27971;53.902;9.118;2022-10-22T04:34:51;101041.0;;;20.0;33.88
41383;BME280;27971;53.902;9.118;2022-10-22T04:36:53;101040.0;;;20.08;33.78
41383;BME280;27971;53.902;9.118;2022-10-22T04:38:57;101039.0;;;20.09;33.78
41383;BME280;27971;53.902;9.118;2022-10-22T04:41:08;101038.0;;;20.13;33.79
41383;BME280;27971;53.902;9.118;2022-10-22T04:43:01;101038.0;;;20.05;33.93
41383;BME280;27971;53.902;9.118;2022-10-22T04:45:04;101037.0;;;20.08;33.87
41383;BME280;27971;53.902;9.118;2022-10-22T04:47:07;101037.0;;;20.05;33.91
41383;BME280;27971;53.902;9.118;2022-10-22T04:49:09;101034.0;;;20.06;33.9
41383;BME280;27971;53.902;9.118;2022-10-22T04:51:13;101033.0;;;20.12;33.83
41383;BME280;27971;53.902;9.118;2022-10-22T04:53:14;101032.0;;;20.04;33.92
41383;BME280;27971;53.902;9.118;2022-10-22T04:55:17;101032.0;;;19.95;33.97
41383;BME280;27971;53.902;9.118;2022-10-22T04:57:19;101032.0;;;19.99;33.89
41383;BME280;27971;53.902;9.118;2022-10-22T04:59:21;101034.0;;;19.83;34.02
41383;BME280;27971;53.902;9.118;2022-10-22T05:01:26;101034.0;;;19.79;34.02
41383;BME280;27971;53.902;9.118;2022-10-22T05:03:27;101035.0;;;19.66;34.05
41383;BME280;27971;53.902;9.118;2022-10-22T05:05:29;101037.0;;;19.71;33.97
41383;BME280;27971;53.902;9.118;2022-10-22T05:07:32;101036.0;;;19.6;33.92
41383;BME280;27971;53.902;9.118;2022-10-22T05:09:35;101033.0;;;19.59;33.84
41383;BME280;27971;53.902;9.118;2022-10-22T05:11:39;101032.0;;;19.49;33.74
41383;BME280;27971;53.902;9.118;2022-10-22T05:13:40;101034.0;;;19.71;33.44
41383;BME280;27971;53.902;9.118;2022-10-22T05:15:43;101033.0;;;19.84;33.14
41383;BME280;27971;53.902;9.118;2022-10-22T05:17:45;101031.0;;;20.53;32.29
41383;BME280;27971;53.902;9.118;2022-10-22T05:19:47;101028.0;;;20.9;31.66
41383;BME280;27971;53.902;9.118;2022-10-22T05:21:50;101028.0;;;20.85;31.6
41383;BME280;27971;53.902;9.118;2022-10-22T05:23:53;101028.0;;;21.21;31.04
41383;BME280;27971;53.902;9.118;2022-10-22T05:25:55;101031.0;;;21.83;30.26
41383;BME280;27971;53.902;9.118;2022-10-22T05:27:57;101031.0;;;21.26;30.48
41383;BME280;27971;53.902;9.118;2022-10-22T05:29:59;101033.0;;;21.67;30.03
41383;BME280;27971;53.902;9.118;2022-10-22T05:32:02;101034.0;;;20.68;30.85
41383;BME280;27971;53.902;9.118;2022-10-22T05:34:04;101035.0;;;20.48;31.11
41383;BME280;27971;53.902;9.118;2022-10-22T05:36:09;101036.0;;;20.26;31.12
41383;BME280;27971;53.902;9.118;2022-10-22T05:38:09;101038.0;;;20.86;30.5
41383;BME280;27971;53.902;9.118;2022-10-22T05:40:11;101037.0;;;20.92;30.28
41383;BME280;27971;53.902;9.118;2022-10-22T05:42:14;101036.0;;;21.38;29.84
41383;BME280;27971;53.902;9.118;2022-10-22T05:44:16;101035.0;;;21.96;29.38
41383;BME280;27971;53.902;9.118;2022-10-22T05:46:20;101034.0;;;21.47;29.58
41383;BME280;27971;53.902;9.118;2022-10-22T05:48:21;101032.0;;;21.71;29.33
41383;BME280;27971;53.902;9.118;2022-10-22T05:50:23;101031.0;;;22.21;28.87
41383;BME280;27971;53.902;9.118;2022-10-22T05:52:26;101033.0;;;22.09;28.89
41383;BME280;27971;53.902;9.118;2022-10-22T05:54:28;101037.0;;;22.45;28.62
41383;BME280;27971;53.902;9.118;2022-10-22T05:56:31;101041.0;;;21.69;29.28
41383;BME280;27971;53.902;9.118;2022-10-22T05:58:35;101042.0;;;21.44;29.54
41383;BME280;27971;53.902;9.118;2022-10-22T06:00:36;101045.0;;;21.93;29.05
41383;BME280;27971;53.902;9.118;2022-10-22T06:02:38;101049.0;;;22.26;28.78
41383;BME280;27971;53.902;9.118;2022-10-22T06:04:41;101049.0;;;22.9;28.23
41383;BME280;27971;53.902;9.118;2022-10-22T06:06:45;101052.0;;;22.72;28.36
41383;BME280;27971;53.902;9.118;2022-10-22T06:08:46;101057.0;;;22.05;28.91
41383;BME280;27971;53.902;9.118;2022-10-22T06:10:49;101059.0;;;21.75;29.19
41383;BME280;27971;53.902;9.118;2022-10-22T06:12:51;101060.0;;;22.18;28.9
41383;BME280;27971;53.902;9.118;2022-10-22T06:14:54;101062.0;;;22.14;28.97
41383;BME280;27971;53.902;9.118;2022-10-22T06:16:58;101063.0;;;22.88;28.36
41383;BME280;27971;53.902;9.118;2022-10-22T06:19:00;101068.0;;;22.25;28.95
41383;BME280;27971;53.902;9.118;2022-10-22T06:21:04;101067.0;;;22.57;28.65
41383;BME280;27971;53.902;9.118;2022-10-22T06:23:06;101070.0;;;22.8;28.49
41383;BME280;27971;53.902;9.118;2022-10-22T06:25:08;101071.0;;;23.46;27.91
41383;BME280;27971;53.902;9.118;2022-10-22T06:27:11;101074.0;;;22.87;28.38
41383;BME280;27971;53.902;9.118;2022-10-22T06:29:13;101077.0;;;22.7;28.49
41383;BME280;27971;53.902;9.118;2022-10-22T06:31:15;101078.0;;;22.32;28.78
41383;BME280;27971;53.902;9.118;2022-10-22T06:33:18;101077.0;;;23.13;28.15
41383;BME280;27971;53.902;9.118;2022-10-22T06:35:20;101077.0;;;23.56;27.77
41383;BME280;27971;53.902;9.118;2022-10-22T06:37:23;101079.0;;;23.07;28.24
41383;BME280;27971;53.902;9.118;2022-10-22T06:39:25;101077.0;;;23.42;28.06
41383;BME280;27971;53.902;9.118;2022-10-22T06:41:28;101079.0;;;23.5;28.0
41383;BME280;27971;53.902;9.118;2022-10-22T06:43:30;101081.0;;;23.52;27.96
41383;BME280;27971;53.902;9.118;2022-10-22T06:45:33;101084.0;;;23.88;27.69
41383;BME280;27971;53.902;9.118;2022-10-22T06:47:35;101086.0;;;23.88;27.66
41383;BME280;27971;53.902;9.118;2022-10-22T06:49:37;101086.0;;;23.85;27.72
41383;BME280;27971;53.902;9.118;2022-10-22T06:51:40;101087.0;;;23.72;27.86
41383;BME280;27971;53.902;9.118;2022-10-22T06:53:43;101087.0;;;24.06;27.74
41383;BME280;27971;53.902;9.118;2022-10-22T06:55:45;101090.0;;;23.54;28.22
41383;BME280;27971;53.902;9.118;2022-10-22T06:57:49;101094.0;;;23.59;28.27
41383;BME280;27971;53.902;9.118;2022-10-22T06:59:51;101097.0;;;23.65;28.25
41383;BME280;27971;53.902;9.118;2022-10-22T07:01:53;101099.0;;;23.29;28.64
41383;BME280;27971;53.902;9.118;2022-10-22T07:03:56;101100.0;;;23.13;28.87
41383;BME280;27971;53.902;9.118;2022-10-22T07:05:59;101102.0;;;23.0;28.86
41383;BME280;27971;53.902;9.118;2022-10-22T07:08:02;101102.0;;;23.53;28.42
41383;BME280;27971;53.902;9.118;2022-10-22T07:10:05;101110.0;;;23.09;28.81
41383;BME280;27971;53.902;9.118;2022-10-22T07:12:07;101116.0;;;23.11;28.88
41383;BME280;27971;53.902;9.118;2022-10-22T07:14:11;101121.0;;;23.17;28.69
41383;BME280;27971;53.902;9.118;2022-10-22T07:16:13;101124.0;;;23.47;28.44
41383;BME280;27971;53.902;9.118;2022-10-22T07:18:15;101124.0;;;23.54;28.33
41383;BME280;27971;53.902;9.118;2022-10-22T07:20:18;101122.0;;;23.6;28.26
41383;BME280;27971;53.902;9.118;2022-10-22T07:22:20;101125.0;;;23.18;28.55
41383;BME280;27971;53.902;9.118;2022-10-22T07:24:22;101125.0;;;23.38;28.33
41383;BME280;27971;53.902;9.118;2022-10-22T07:26:26;101125.0;;;23.25;28.42
41383;BME280;27971;53.902;9.118;2022-10-22T07:28:28;101122.0;;;23.61;28.06
41383;BME280;27971;53.902;9.118;2022-10-22T07:30:30;101126.0;;;23.96;27.76
41383;BME280;27971;53.902;9.118;2022-10-22T07:32:33;101134.0;;;23.35;28.14
41383;BME280;27971;53.902;9.118;2022-10-22T07:34:35;101134.0;;;23.54;28.03
41383;BME280;27971;53.902;9.118;2022-10-22T07:36:38;101136.0;;;23.67;27.88
41383;BME280;27971;53.902;9.118;2022-10-22T07:38:40;101143.0;;;23.16;28.42
41383;BME280;27971;53.902;9.118;2022-10-22T07:40:43;101147.0;;;23.24;28.51
41383;BME280;27971;53.902;9.118;2022-10-22T07:42:45;101150.0;;;22.44;29.11
41383;BME280;27971;53.902;9.118;2022-10-22T07:44:47;101154.0;;;22.46;29.11
41383;BME280;27971;53.902;9.118;2022-10-22T07:46:49;101157.0;;;22.64;29.04
41383;BME280;27971;53.902;9.118;2022-10-22T07:48:52;101158.0;;;22.48;29.22
41383;BME280;27971;53.902;9.118;2022-10-22T07:50:54;101157.0;;;22.83;28.94
41383;BME280;27971;53.902;9.118;2022-10-22T07:52:57;101157.0;;;22.55;29.16
41383;BME280;27971;53.902;9.118;2022-10-22T07:54:59;101161.0;;;22.6;29.25
41383;BME280;27971;53.902;9.118;2022-10-22T07:57:01;101164.0;;;22.67;29.34
41383;BME280;27971;53.902;9.118;2022-10-22T07:59:03;101165.0;;;22.74;29.43
41383;BME280;27971;53.902;9.118;2022-10-22T08:01:06;101167.0;;;23.08;29.2
41383;BME280;27971;53.902;9.118;2022-10-22T08:03:10;101168.0;;;22.78;29.44
41383;BME280;27971;53.902;9.118;2022-10-22T08:05:12;101170.0;;;22.82;29.48
41383;BME280;27971;53.902;9.118;2022-10-22T08:07:14;101173.0;;;22.79;29.49
41383;BME280;27971;53.902;9.118;2022-10-22T08:09:17;101174.0;;;22.86;29.42
41383;BME280;27971;53.902;9.118;2022-10-22T08:11:19;101179.0;;;22.97;29.27
41383;BME280;27971;53.902;9.118;2022-10-22T08:13:22;101182.0;;;23.04;29.16
41383;BME280;27971;53.902;9.118;2022-10-22T08:15:25;101183.0;;;23.09;29.02
41383;BME280;27971;53.902;9.118;2022-10-22T08:17:28;101184.0;;;22.9;28.95
41383;BME280;27971;53.902;9.118;2022-10-22T08:19:30;101180.0;;;23.3;28.56
41383;BME280;27971;53.902;9.118;2022-10-22T08:21:33;101180.0;;;23.46;28.42
41383;BME280;27971;53.902;9.118;2022-10-22T08:23:35;101182.0;;;22.51;29.17
41383;BME280;27971;53.902;9.118;2022-10-22T08:25:37;101185.0;;;22.82;28.92
41383;BME280;27971;53.902;9.118;2022-10-22T08:27:40;101187.0;;;22.63;29.13
41383;BME280;27971;53.902;9.118;2022-10-22T08:29:42;101189.0;;;22.73;29.02
41383;BME280;27971;53.902;9.118;2022-10-22T08:31:44;101191.0;;;23.09;28.77
41383;BME280;27971;53.902;9.118;2022-10-22T08:33:46;101193.0;;;22.9;29.06
41383;BME280;27971;53.902;9.118;2022-10-22T08:35:49;101193.0;;;22.51;29.51
41383;BME280;27971;53.902;9.118;2022-10-22T08:37:52;101195.0;;;22.78;29.44
41383;BME280;27971;53.902;9.118;2022-10-22T08:39:54;101195.0;;;22.88;29.41
41383;BME280;27971;53.902;9.118;2022-10-22T08:42:05;101195.0;;;22.84;29.57
41383;BME280;27971;53.902;9.118;2022-10-22T08:44:28;101194.0;;;22.87;29.69
41383;BME280;27971;53.902;9.118;2022-10-22T08:46:11;101191.0;;;23.08;29.54
41383;BME280;27971;53.902;9.118;2022-10-22T08:48:13;101188.0;;;22.92;29.58
41383;BME280;27971;53.902;9.118;2022-10-22T08:50:09;101189.0;;;23.14;29.41
41383;BME280;27971;53.902;9.118;2022-10-22T08:52:13;101190.0;;;23.3;29.15
41383;BME280;27971;53.902;9.118;2022-10-22T08:54:25;101189.0;;;23.21;29.06
41383;BME280;27971;53.902;9.118;2022-10-22T08:56:17;101187.0;;;23.23;28.82
41383;BME280;27971;53.902;9.118;2022-10-22T08:58:24;101185.0;;;22.71;29.18
41383;BME280;27971;53.902;9.118;2022-10-22T09:00:29;101182.0;;;23.57;28.39
41383;BME280;27971;53.902;9.118;2022-10-22T09:02:34;101182.0;;;23.31;28.59
41383;BME280;27971;53.902;9.118;2022-10-22T09:04:31;101184.0;;;22.79;29.09
41383;BME280;27971;53.902;9.118;2022-10-22T09:06:32;101183.0;;;23.24;28.71
41383;BME280;27971;53.902;9.118;2022-10-22T09:08:34;101185.0;;;22.7;29.26
41383;BME280;27971;53.902;9.118;2022-10-22T09:10:38;101185.0;;;23.43;28.77
41383;BME280;27971;53.902;9.118;2022-10-22T09:12:39;101188.0;;;22.94;29.27
41383;BME280;27971;53.902;9.118;2022-10-22T09:14:42;101189.0;;;23.39;28.93
41383;BME280;27971;53.902;9.118;2022-10-22T09:17:01;101192.0;;;23.06;29.22
41383;BME280;27971;53.902;9.118;2022-10-22T09:18:55;101190.0;;;23.64;29.02
41383;BME280;27971;53.902;9.118;2022-10-22T09:20:54;101188.0;;;23.44;29.15
41383;BME280;27971;53.902;9.118;2022-10-22T09:22:58;101186.0;;;23.08;29.47
41383;BME280;27971;53.902;9.118;2022-10-22T09:24:57;101184.0;;;23.21;29.37
41383;BME280;27971;53.902;9.118;2022-10-22T09:26:58;101182.0;;;23.04;29.39
41383;BME280;27971;53.902;9.118;2022-10-22T09:29:01;101183.0;;;22.79;29.49
41383;BME280;27971;53.902;9.118;2022-10-22T09:31:10;101183.0;;;22.44;29.69
41383;BME280;27971;53.902;9.118;2022-10-22T09:33:12;101185.0;;;22.82;29.35
41383;BME280;27971;53.902;9.118;2022-10-22T09:35:11;101185.0;;;23.43;28.77
41383;BME280;27971;53.902;9.118;2022-10-22T09:37:15;101194.0;;;22.66;29.36
41383;BME280;27971;53.902;9.118;2022-10-22T09:39:25;101195.0;;;23.57;28.54
41383;BME280;27971;53.902;9.118;2022-10-22T09:41:19;101196.0;;;23.79;28.38
41383;BME280;27971;53.902;9.118;2022-10-22T09:43:21;101195.0;;;23.6;28.49
41383;BME280;27971;53.902;9.118;2022-10-22T09:45:24;101197.0;;;23.44;28.62
41383;BME280;27971;53.902;9.118;2022-10-22T09:47:32;101198.0;;;23.55;28.6
41383;BME280;27971;53.902;9.118;2022-10-22T09:49:33;101199.0;;;23.83;28.51
41383;BME280;27971;53.902;9.118;2022-10-22T09:51:41;101203.0;;;23.55;28.78
41383;BME280;27971;53.902;9.118;2022-10-22T09:53:37;101205.0;;;23.25;29.16
41383;BME280;27971;53.902;9.118;2022-10-22T09:55:40;101205.0;;;23.33;29.09
41383;BME280;27971;53.902;9.118;2022-10-22T09:57:42;101206.0;;;23.44;29.13
41383;BME280;27971;53.902;9.118;2022-10-22T09:59:47;101206.0;;;23.32;29.33
41383;BME280;27971;53.902;9.118;2022-10-22T10:01:56;101206.0;;;23.36;29.22
41383;BME280;27971;53.902;9.118;2022-10-22T10:03:49;101204.0;;;23.54;29.17
41383;BME280;27971;53.902;9.118;2022-10-22T10:05:54;101207.0;;;23.24;29.24
41383;BME280;27971;53.902;9.118;2022-10-22T10:07:54;101208.0;;;23.59;28.88
41383;BME280;27971;53.902;9.118;2022-10-22T10:09:57;101211.0;;;23.25;29.12
41383;BME280;27971;53.902;9.118;2022-10-22T10:12:07;101210.0;;;23.31;29.04
41383;BME280;27971;53.902;9.118;2022-10-22T10:14:09;101207.0;;;24.01;28.53
41383;BME280;27971;53.902;9.118;2022-10-22T10:16:11;101207.0;;;23.9;28.62
41383;BME280;27971;53.902;9.118;2022-10-22T10:18:18;101209.0;;;23.55;28.89
41383;BME280;27971;53.902;9.118;2022-10-22T10:20:21;101211.0;;;23.77;28.72
41383;BME280;27971;53.902;9.118;2022-10-22T10:22:26;101211.0;;;23.38;29.0
41383;BME280;27971;53.902;9.118;2022-10-22T10:24:22;101212.0;;;23.81;28.65
41383;BME280;27971;53.902;9.118;2022-10-22T10:26:26;101213.0;;;23.59;28.8
41383;BME280;27971;53.902;9.118;2022-10-22T10:28:31;101213.0;;;23.62;28.72
41383;BME280;27971;53.902;9.118;2022-10-22T10:30:25;101213.0;;;23.93;28.54
41383;BME280;27971;53.902;9.118;2022-10-22T10:32:42;101213.0;;;23.73;28.66
41383;BME280;27971;53.902;9.118;2022-10-22T10:34:40;101214.0;;;23.8;28.73
41383;BME280;27971;53.902;9.118;2022-10-22T10:36:41;101215.0;;;23.65;28.97
41383;BME280;27971;53.902;9.118;2022-10-22T10:38:43;101213.0;;;23.76;28.88
41383;BME280;27971;53.902;9.118;2022-10-22T10:40:45;101212.0;;;23.93;28.77
41383;BME280;27971;53.902;9.118;2022-10-22T10:42:47;101211.0;;;23.55;29.16
41383;BME280;27971;53.902;9.118;2022-10-22T10:44:53;101210.0;;;23.75;29.12
41383;BME280;27971;53.902;9.118;2022-10-22T10:46:51;101210.0;;;23.86;29.14
41383;BME280;27971;53.902;9.118;2022-10-22T10:48:53;101210.0;;;23.28;29.7
41383;BME280;27971;53.902;9.118;2022-10-22T10:51:00;101211.0;;;23.15;29.75